Minot Air Force Base
KMIB : now visible

Airfield :











YOU CAN JOIN US ON...

 
LOGIN :

Register | Disclaimer

   EN    FR    IT 

 









Legend :    VFR   Marginal VFR   IFR   Intensive IFR   Very Intensive IFR
Visi :
Ceiling :
>= 8 km
>= 3000ft
5 to 8 km
1000 to 3000 ft
1500m to 5 km
500 to 1000 ft
800 to 1500m
200 to 500 ft
< 800m
< 200 ft
Symbols :   Thunderstorms  Fog  Heavy snow  Heavy precipitations  Wind > 20 kt







- Airport Elevation : 1667 ft


KMIB - Minot Air Force Base

CURRENT METAR :
  • 210956Z AUTO 00000KT 10SM CLR 03/00 A3006 RMK AO2 SLP190 T00310002 $

EXPIRED METARs :
  • 210856Z AUTO 00000KT 10SM CLR 01/M02 A3005 RMK AO2 SLP188 T00131016 50002 $
  • 210756Z AUTO 20005KT 10SM CLR 03/00 A3005 RMK AO2 SLP187 T00341002 $

TAF TAF KMIB
Valid from the 21 at 09:00 until the 22 at 15:00 UTC


210900Z 2109/2215 VRB06KT 9999 SKC QNH3000INS
BECMG 2117/2118 10015G25KT 9999 BKN120 QNH2988INS
BECMG 2202/2203 06009KT 9999 FEW150 QNH2973INS
BECMG 2210/2211 03009KT 9999 BKN050 QNH2970INS
BECMG 2214/2215 05012G18KT 9000 -RA BKN010 OVC050 QNH2969INS TX18/2123Z TN01/2111Z
KZMP FIR / North America



MET'MAP, your aeronautical weather chart ! - Copyright ORBIFLY December 2007 - Disclaimer

ORBIFLY MET'MAP TEAM :

Programming & Development : Alexandra Zaïnal
Concept & Development : Baudouin d'Aumeries
Co-Development & Prog : Marc-Olivier Méhu
Technical & hardware support : Manuel Goepfert

Contact : metmap@orbifly.com




SOURCES & CREDITS :

   NOAA       Earth
Advisory